createdAt,value
2023-08-29T00:01:48.528Z,12.80
2023-08-29T00:04:15.689Z,12.80
2023-08-29T00:06:42.726Z,12.80
2023-08-29T00:09:09.533Z,12.80
2023-08-29T00:11:36.554Z,12.80
2023-08-29T00:14:04.014Z,12.80
2023-08-29T00:16:30.785Z,12.80
2023-08-29T00:18:57.959Z,12.80
2023-08-29T00:21:24.745Z,12.80
2023-08-29T00:23:51.550Z,12.90
2023-08-29T00:26:18.352Z,13.00
2023-08-29T00:28:45.220Z,12.90
2023-08-29T00:31:12.134Z,12.90
2023-08-29T00:33:38.906Z,12.90
2023-08-29T00:36:05.868Z,12.80
2023-08-29T00:38:32.841Z,12.80
2023-08-29T00:41:00.661Z,12.80
2023-08-29T00:43:27.520Z,12.70
2023-08-29T00:45:54.616Z,12.70
2023-08-29T00:48:21.410Z,12.70
2023-08-29T00:50:49.000Z,12.80
2023-08-29T00:53:16.182Z,12.80
2023-08-29T00:55:43.979Z,12.80
2023-08-29T00:58:10.762Z,12.80
2023-08-29T01:00:37.879Z,12.80
2023-08-29T01:03:05.105Z,12.90
2023-08-29T01:05:31.945Z,12.90
2023-08-29T01:08:01.638Z,12.90
2023-08-29T01:10:54.950Z,12.90
2023-08-29T01:13:38.034Z,12.90
2023-08-29T01:16:10.369Z,12.90
2023-08-29T01:18:39.297Z,12.90
2023-08-29T01:21:29.169Z,12.80
2023-08-29T01:24:39.287Z,12.80
2023-08-29T01:27:07.962Z,12.80
2023-08-29T01:29:35.550Z,12.80
2023-08-29T01:32:04.244Z,12.80
2023-08-29T01:34:31.973Z,12.80
2023-08-29T01:36:58.841Z,12.70
2023-08-29T01:39:38.698Z,12.80
2023-08-29T01:42:05.827Z,12.70
2023-08-29T01:44:32.590Z,12.80
2023-08-29T01:46:59.392Z,12.70
2023-08-29T01:49:28.297Z,12.80
2023-08-29T01:51:55.123Z,12.80
2023-08-29T01:54:21.923Z,12.80
2023-08-29T01:56:50.326Z,12.80
2023-08-29T01:59:17.142Z,12.80
2023-08-29T02:01:44.248Z,12.80
2023-08-29T02:04:11.132Z,12.80
2023-08-29T02:06:37.901Z,12.80
2023-08-29T02:09:04.948Z,12.80
2023-08-29T02:11:31.731Z,12.70
2023-08-29T02:13:58.511Z,12.70
2023-08-29T02:16:25.777Z,12.60
2023-08-29T02:18:53.727Z,12.60
2023-08-29T02:21:20.649Z,12.60
2023-08-29T02:23:47.497Z,12.60
2023-08-29T02:26:14.311Z,12.60
2023-08-29T02:28:41.267Z,12.60
2023-08-29T02:31:10.188Z,12.60
2023-08-29T02:33:39.477Z,12.60
2023-08-29T02:36:07.372Z,12.60
2023-08-29T02:38:34.996Z,12.70
2023-08-29T02:41:02.033Z,12.70
2023-08-29T02:43:29.339Z,12.70
2023-08-29T02:45:56.160Z,12.70
2023-08-29T02:48:23.142Z,12.60
2023-08-29T02:50:49.992Z,12.70
2023-08-29T02:53:21.151Z,12.70
2023-08-29T02:55:52.131Z,12.70
2023-08-29T02:58:19.839Z,12.70
2023-08-29T03:00:46.680Z,12.70
2023-08-29T03:03:14.913Z,12.70
2023-08-29T03:05:43.315Z,12.60
2023-08-29T03:08:10.127Z,12.60
2023-08-29T03:10:38.346Z,12.60
2023-08-29T03:13:05.277Z,12.60
2023-08-29T03:15:35.141Z,12.60
2023-08-29T03:18:02.091Z,12.60
2023-08-29T03:20:29.395Z,12.60
2023-08-29T03:22:58.510Z,12.60
2023-08-29T03:25:25.385Z,12.60
2023-08-29T03:27:52.270Z,12.60
2023-08-29T03:30:19.310Z,12.70
2023-08-29T03:32:50.512Z,12.70
2023-08-29T03:35:17.703Z,12.70
2023-08-29T03:37:44.868Z,12.70
2023-08-29T03:40:15.275Z,12.70
2023-08-29T03:42:42.297Z,12.70
2023-08-29T03:45:09.663Z,12.80
2023-08-29T03:47:38.970Z,12.80
2023-08-29T03:50:07.216Z,12.80
2023-08-29T03:52:34.069Z,12.90
2023-08-29T03:55:00.906Z,12.80
2023-08-29T03:57:28.179Z,12.80
2023-08-29T03:59:55.471Z,12.80
2023-08-29T04:02:22.849Z,12.80
2023-08-29T04:04:53.440Z,12.70
2023-08-29T04:07:20.437Z,12.70
2023-08-29T04:09:47.417Z,12.60
2023-08-29T04:12:14.201Z,12.60
2023-08-29T04:14:41.001Z,12.50
2023-08-29T04:17:07.960Z,12.60
2023-08-29T04:19:34.781Z,12.60
2023-08-29T04:22:01.909Z,12.50
2023-08-29T04:24:30.415Z,12.60
2023-08-29T04:26:57.222Z,12.60
2023-08-29T04:29:24.044Z,12.60
2023-08-29T04:31:50.865Z,12.50
2023-08-29T04:34:17.735Z,12.50
2023-08-29T04:36:46.263Z,12.60
2023-08-29T04:39:13.057Z,12.60
2023-08-29T04:41:39.838Z,12.60
2023-08-29T04:44:09.330Z,12.60
2023-08-29T04:46:36.191Z,12.60
2023-08-29T04:49:03.288Z,12.60
2023-08-29T04:51:30.121Z,12.60
2023-08-29T04:53:56.901Z,12.60
2023-08-29T04:56:23.672Z,12.50
2023-08-29T04:58:50.472Z,12.60
2023-08-29T05:01:17.722Z,12.60
2023-08-29T05:03:44.589Z,12.60
2023-08-29T05:06:11.364Z,12.60
2023-08-29T05:08:38.163Z,12.60
2023-08-29T05:11:05.370Z,12.60
2023-08-29T05:13:34.568Z,12.70
2023-08-29T05:16:06.491Z,12.80
2023-08-29T05:18:33.401Z,12.90
2023-08-29T05:21:00.729Z,12.90
2023-08-29T05:23:27.614Z,12.90
2023-08-29T05:25:54.552Z,13.00
2023-08-29T05:28:21.697Z,13.00
2023-08-29T05:30:49.903Z,13.10
2023-08-29T05:33:16.715Z,13.10
2023-08-29T05:35:44.401Z,13.20
2023-08-29T05:38:11.399Z,13.20
2023-08-29T05:40:38.155Z,13.40
2023-08-29T05:43:05.087Z,13.50
2023-08-29T05:45:31.912Z,13.60
2023-08-29T05:47:58.795Z,13.80
2023-08-29T05:50:25.770Z,13.90
2023-08-29T05:52:53.007Z,13.90
2023-08-29T05:55:21.762Z,13.90
2023-08-29T05:57:48.503Z,13.90
2023-08-29T06:00:16.061Z,14.00
2023-08-29T06:02:45.404Z,14.00
2023-08-29T06:05:13.924Z,14.10
2023-08-29T06:07:40.710Z,14.20
2023-08-29T06:10:08.718Z,14.30
2023-08-29T06:12:35.510Z,14.30
2023-08-29T06:15:02.296Z,14.40
2023-08-29T06:17:29.171Z,14.40
2023-08-29T06:19:56.045Z,14.40
2023-08-29T06:22:22.871Z,14.40
2023-08-29T06:24:49.634Z,14.50
2023-08-29T06:27:16.354Z,14.50
2023-08-29T06:29:43.209Z,14.60
2023-08-29T06:32:10.002Z,14.60
2023-08-29T06:34:36.779Z,14.60
2023-08-29T06:37:03.899Z,14.70
2023-08-29T06:39:30.670Z,14.80
2023-08-29T06:41:57.448Z,14.80
2023-08-29T06:44:24.172Z,14.70
2023-08-29T06:46:50.940Z,14.70
2023-08-29T06:49:17.749Z,14.80
2023-08-29T06:51:44.546Z,14.80
2023-08-29T06:54:11.318Z,14.90
2023-08-29T06:56:38.106Z,15.00
2023-08-29T06:59:04.880Z,15.00
2023-08-29T07:01:35.410Z,15.10
2023-08-29T07:04:02.225Z,15.00
2023-08-29T07:06:28.981Z,15.10
2023-08-29T07:08:55.729Z,15.10
2023-08-29T07:11:22.539Z,15.20
2023-08-29T07:13:50.357Z,15.20
2023-08-29T07:16:17.311Z,15.20
2023-08-29T07:18:44.111Z,15.30
2023-08-29T07:21:10.946Z,15.30
2023-08-29T07:23:37.748Z,15.40
2023-08-29T07:26:04.863Z,15.40
2023-08-29T07:28:31.617Z,15.40
2023-08-29T07:30:59.305Z,15.50
2023-08-29T07:33:26.298Z,15.50
2023-08-29T07:35:53.316Z,15.50
2023-08-29T07:38:20.412Z,15.60
2023-08-29T07:40:48.194Z,15.80
2023-08-29T07:43:16.548Z,15.90
2023-08-29T07:45:43.515Z,16.00
2023-08-29T07:48:10.925Z,16.00
2023-08-29T07:50:39.419Z,16.10
2023-08-29T07:53:06.593Z,16.00
2023-08-29T07:55:33.485Z,16.10
2023-08-29T07:58:01.944Z,16.10
2023-08-29T08:00:29.395Z,16.10
2023-08-29T08:03:01.135Z,16.20
2023-08-29T08:05:28.443Z,16.30
2023-08-29T08:07:56.763Z,16.30
2023-08-29T08:10:23.866Z,16.40
2023-08-29T08:12:51.423Z,16.50
2023-08-29T08:15:18.802Z,16.60
2023-08-29T08:17:47.747Z,16.70
2023-08-29T08:20:15.013Z,16.80
2023-08-29T08:22:43.081Z,16.90
2023-08-29T08:25:11.039Z,16.90
2023-08-29T08:27:41.424Z,16.80
2023-08-29T08:30:09.556Z,16.90
2023-08-29T08:32:37.143Z,17.00
2023-08-29T08:35:08.452Z,17.10
2023-08-29T08:37:36.823Z,17.10
2023-08-29T08:40:11.636Z,17.00
2023-08-29T08:42:42.010Z,17.00
2023-08-29T08:45:13.615Z,17.00
2023-08-29T08:47:41.563Z,17.00
2023-08-29T08:50:10.774Z,17.10
2023-08-29T08:52:39.991Z,17.00
2023-08-29T08:55:08.119Z,17.00
2023-08-29T08:57:35.345Z,17.00
2023-08-29T09:00:03.661Z,17.00
2023-08-29T09:02:32.571Z,17.10
2023-08-29T09:04:59.344Z,17.10
2023-08-29T09:07:26.229Z,17.20
2023-08-29T09:10:12.843Z,17.20
2023-08-29T09:12:55.692Z,17.30
2023-08-29T09:15:23.166Z,17.60
2023-08-29T09:17:51.955Z,17.60
2023-08-29T09:20:19.599Z,17.70
2023-08-29T09:22:48.830Z,17.60
2023-08-29T09:25:16.609Z,17.70
2023-08-29T09:27:47.072Z,17.60
2023-08-29T09:30:16.637Z,17.60
2023-08-29T09:32:51.167Z,17.50
2023-08-29T09:35:22.970Z,17.50
2023-08-29T09:37:55.388Z,17.50
2023-08-29T09:43:04.012Z,17.50
2023-08-29T09:45:32.754Z,17.50
2023-08-29T09:48:10.552Z,17.60
2023-08-29T09:50:38.747Z,17.60
2023-08-29T09:53:06.774Z,17.70
2023-08-29T09:55:40.866Z,17.70
2023-08-29T09:58:08.731Z,17.80
2023-08-29T10:00:37.398Z,17.60
2023-08-29T10:03:11.353Z,17.50
2023-08-29T10:05:41.484Z,17.50
2023-08-29T10:08:47.340Z,17.50
2023-08-29T10:11:14.172Z,17.60
2023-08-29T10:13:43.615Z,17.80
2023-08-29T10:16:13.032Z,17.90
2023-08-29T10:18:40.647Z,17.90
2023-08-29T10:21:08.089Z,17.80
2023-08-29T10:23:36.756Z,17.80
2023-08-29T10:26:05.000Z,17.90
2023-08-29T10:28:32.256Z,18.00
2023-08-29T10:31:03.907Z,18.10
2023-08-29T10:33:31.011Z,18.10
2023-08-29T10:35:58.045Z,18.20
2023-08-29T10:38:27.514Z,18.30
2023-08-29T10:41:11.995Z,18.30
2023-08-29T10:43:38.885Z,18.10
2023-08-29T10:46:15.703Z,18.00
2023-08-29T10:48:45.420Z,18.00
2023-08-29T10:51:31.388Z,17.90
2023-08-29T10:54:06.911Z,17.80
2023-08-29T10:56:44.852Z,17.60
2023-08-29T10:59:33.825Z,17.50
2023-08-29T11:02:28.111Z,17.50
2023-08-29T11:05:10.978Z,17.50
2023-08-29T11:07:39.362Z,17.60
2023-08-29T11:10:24.159Z,17.80
2023-08-29T11:13:12.570Z,18.00
2023-08-29T11:15:51.023Z,18.20
2023-08-29T11:18:31.882Z,18.50
2023-08-29T11:21:09.052Z,18.80
2023-08-29T11:23:43.538Z,19.00
2023-08-29T11:26:11.015Z,18.90
2023-08-29T11:28:45.733Z,19.00
2023-08-29T11:31:19.287Z,19.00
2023-08-29T11:33:49.882Z,19.00
2023-08-29T11:36:17.287Z,18.90
2023-08-29T11:38:45.151Z,18.70
2023-08-29T11:41:21.877Z,18.50
2023-08-29T11:44:53.991Z,18.50
2023-08-29T11:46:49.361Z,18.50
2023-08-29T11:49:17.557Z,18.50
2023-08-29T11:51:45.209Z,18.50
2023-08-29T11:54:42.801Z,18.40
2023-08-29T11:57:13.999Z,18.40
2023-08-29T11:59:45.964Z,18.30
2023-08-29T12:02:17.743Z,18.30
2023-08-29T12:04:48.495Z,18.00
2023-08-29T12:07:18.155Z,17.80
2023-08-29T12:09:47.698Z,17.70
2023-08-29T12:12:36.891Z,17.60
2023-08-29T12:15:11.582Z,17.50
2023-08-29T12:17:41.672Z,17.50
2023-08-29T12:20:14.663Z,17.60
2023-08-29T12:22:48.148Z,17.60
2023-08-29T12:25:15.207Z,17.60
2023-08-29T12:27:42.630Z,17.50
2023-08-29T12:30:15.336Z,17.50
2023-08-29T12:32:47.002Z,17.40
2023-08-29T12:35:19.341Z,17.40
2023-08-29T12:37:46.375Z,17.40
2023-08-29T12:40:13.788Z,17.40
2023-08-29T12:42:43.388Z,17.40
2023-08-29T12:45:10.625Z,17.50
2023-08-29T12:47:40.172Z,17.50
2023-08-29T12:50:08.201Z,17.50
2023-08-29T12:52:36.214Z,17.60
2023-08-29T12:55:03.001Z,17.60
2023-08-29T12:57:29.864Z,17.60
2023-08-29T12:59:56.614Z,17.60
2023-08-29T13:02:23.390Z,17.60
2023-08-29T13:04:50.220Z,17.80
2023-08-29T13:07:17.031Z,17.90
2023-08-29T13:09:44.603Z,17.90
2023-08-29T13:12:11.407Z,18.00
2023-08-29T13:14:39.602Z,18.00
2023-08-29T13:17:09.561Z,17.90
2023-08-29T13:19:40.241Z,17.80
2023-08-29T13:22:07.288Z,17.90
2023-08-29T13:24:35.413Z,17.80
2023-08-29T13:27:02.429Z,17.80
2023-08-29T13:29:31.196Z,17.80
2023-08-29T13:31:58.043Z,17.80
2023-08-29T13:34:24.893Z,17.90
2023-08-29T13:36:51.729Z,17.90
2023-08-29T13:39:18.942Z,17.90
2023-08-29T13:41:45.868Z,18.00
2023-08-29T13:44:13.138Z,18.00
2023-08-29T13:46:41.460Z,17.90
2023-08-29T13:49:09.969Z,17.80
2023-08-29T13:51:36.891Z,17.70
2023-08-29T13:54:04.621Z,17.70
2023-08-29T13:56:34.449Z,17.60
2023-08-29T13:59:03.939Z,17.60
2023-08-29T14:01:33.684Z,17.60
2023-08-29T14:04:00.585Z,17.70
2023-08-29T14:06:27.983Z,17.70
2023-08-29T14:08:54.769Z,17.70
2023-08-29T14:11:21.901Z,17.70
2023-08-29T14:13:48.663Z,17.70
2023-08-29T14:16:15.397Z,17.70
2023-08-29T14:18:44.749Z,17.60
2023-08-29T14:21:11.578Z,17.60
2023-08-29T14:23:38.333Z,17.50
2023-08-29T14:26:12.522Z,17.50
2023-08-29T14:28:43.447Z,17.40
2023-08-29T14:31:10.696Z,17.40
2023-08-29T14:33:38.603Z,17.40
2023-08-29T14:36:06.070Z,17.30
2023-08-29T14:38:32.857Z,17.30
2023-08-29T14:41:10.301Z,17.30
2023-08-29T14:43:38.586Z,17.30
2023-08-29T14:46:06.603Z,17.20
2023-08-29T14:48:38.379Z,17.20
2023-08-29T14:51:06.362Z,17.20
2023-08-29T14:53:37.655Z,17.20
2023-08-29T14:56:04.633Z,17.10
2023-08-29T14:58:33.795Z,17.10
2023-08-29T15:01:00.961Z,17.00
2023-08-29T15:03:27.915Z,17.00
2023-08-29T15:05:58.567Z,17.00
2023-08-29T15:08:26.761Z,16.90
2023-08-29T15:10:54.682Z,16.90
2023-08-29T15:13:22.477Z,16.90
2023-08-29T15:15:49.676Z,16.80
2023-08-29T15:18:17.708Z,16.80
2023-08-29T15:20:44.882Z,16.70
2023-08-29T15:23:13.773Z,16.70
2023-08-29T15:25:40.536Z,16.70
2023-08-29T15:28:07.571Z,16.70
2023-08-29T15:30:34.561Z,16.60
2023-08-29T15:33:01.987Z,16.60
2023-08-29T15:35:28.897Z,16.60
2023-08-29T15:37:55.675Z,16.60
2023-08-29T15:40:22.506Z,16.50
2023-08-29T15:42:52.036Z,16.50
2023-08-29T15:45:18.897Z,16.50
2023-08-29T15:47:45.796Z,16.40
2023-08-29T15:50:12.693Z,16.40
2023-08-29T15:52:39.480Z,16.40
2023-08-29T15:55:07.006Z,16.40
2023-08-29T15:57:33.792Z,16.40
2023-08-29T16:00:03.529Z,16.40
2023-08-29T16:02:30.366Z,16.40
2023-08-29T16:04:57.133Z,16.40
2023-08-29T16:07:24.007Z,16.40
2023-08-29T16:09:50.757Z,16.50
2023-08-29T16:12:17.531Z,16.60
2023-08-29T16:14:45.939Z,16.60
2023-08-29T16:17:12.789Z,16.60
2023-08-29T16:19:41.057Z,16.60
2023-08-29T16:22:09.747Z,16.60
2023-08-29T16:24:36.559Z,16.70
2023-08-29T16:27:04.204Z,16.70
2023-08-29T16:29:31.461Z,16.80
2023-08-29T16:31:58.232Z,16.80
2023-08-29T16:34:25.065Z,16.90
2023-08-29T16:36:51.852Z,17.00
2023-08-29T16:39:19.099Z,17.10
2023-08-29T16:41:46.404Z,17.20
2023-08-29T16:44:13.162Z,17.20
2023-08-29T16:46:39.969Z,17.30
2023-08-29T16:49:06.835Z,17.30
2023-08-29T16:51:33.782Z,17.30
2023-08-29T16:54:00.986Z,17.40
2023-08-29T16:56:27.732Z,17.50
2023-08-29T16:58:54.727Z,17.50
2023-08-29T17:01:21.459Z,17.50
2023-08-29T17:03:48.385Z,17.50
2023-08-29T17:06:15.314Z,17.60
2023-08-29T17:08:42.258Z,17.60
2023-08-29T17:11:09.029Z,17.60
2023-08-29T17:13:35.856Z,17.60
2023-08-29T17:16:05.732Z,17.60
2023-08-29T17:18:32.529Z,17.60
2023-08-29T17:20:59.272Z,17.60
2023-08-29T17:23:26.104Z,17.60
2023-08-29T17:25:52.868Z,17.50
2023-08-29T17:28:20.301Z,17.50
2023-08-29T17:30:47.067Z,17.30
2023-08-29T17:33:13.816Z,17.20
2023-08-29T17:35:40.656Z,17.10
2023-08-29T17:38:07.752Z,17.00
2023-08-29T17:40:34.744Z,16.90
2023-08-29T17:43:04.253Z,16.70
2023-08-29T17:45:31.801Z,16.60
2023-08-29T17:47:58.630Z,16.50
2023-08-29T17:50:28.456Z,16.40
2023-08-29T17:52:56.976Z,16.20
2023-08-29T17:55:23.783Z,16.10
2023-08-29T17:57:53.003Z,15.90
2023-08-29T18:00:20.937Z,15.80
2023-08-29T18:02:51.704Z,15.70
2023-08-29T18:05:18.741Z,15.60
2023-08-29T18:07:45.618Z,15.50
2023-08-29T18:10:15.189Z,15.30
2023-08-29T18:12:42.297Z,15.20
2023-08-29T18:15:11.038Z,15.00
2023-08-29T18:17:38.011Z,15.00
2023-08-29T18:20:06.006Z,14.80
2023-08-29T18:22:34.990Z,14.70
2023-08-29T18:25:01.915Z,14.60
2023-08-29T18:27:28.746Z,14.50
2023-08-29T18:29:56.878Z,14.40
2023-08-29T18:32:24.120Z,14.30
2023-08-29T18:34:53.770Z,14.30
2023-08-29T18:37:20.616Z,14.30
2023-08-29T18:39:48.697Z,14.20
2023-08-29T18:42:15.478Z,14.20
2023-08-29T18:44:44.657Z,14.10
2023-08-29T18:47:11.494Z,14.10
2023-08-29T18:49:38.535Z,14.00
2023-08-29T18:52:05.671Z,14.00
2023-08-29T18:54:34.657Z,13.90
2023-08-29T18:57:01.790Z,13.90
2023-08-29T18:59:28.581Z,13.90
2023-08-29T19:01:55.652Z,13.80
2023-08-29T19:04:22.475Z,13.80
2023-08-29T19:06:50.409Z,13.80
2023-08-29T19:09:17.240Z,13.70
2023-08-29T19:11:44.033Z,13.70
2023-08-29T19:14:10.808Z,13.70
2023-08-29T19:16:37.627Z,13.60
2023-08-29T19:19:05.209Z,13.50
2023-08-29T19:21:33.075Z,13.50
2023-08-29T19:24:00.890Z,13.40
2023-08-29T19:26:29.011Z,13.40
2023-08-29T19:28:57.191Z,13.40
2023-08-29T19:31:23.942Z,13.40
2023-08-29T19:33:53.951Z,13.30
2023-08-29T19:36:20.794Z,13.30
2023-08-29T19:38:51.044Z,13.20
2023-08-29T19:41:20.195Z,13.20
2023-08-29T19:43:47.037Z,13.20
2023-08-29T19:46:14.183Z,13.10
2023-08-29T19:48:40.996Z,13.10
2023-08-29T19:51:07.792Z,13.10
2023-08-29T19:53:36.585Z,13.10
2023-08-29T19:56:05.182Z,13.00
2023-08-29T19:58:32.274Z,13.10
2023-08-29T20:01:09.089Z,13.00
2023-08-29T20:03:37.640Z,13.00
2023-08-29T20:06:04.688Z,13.00
2023-08-29T20:08:31.717Z,13.00
2023-08-29T20:10:58.512Z,13.00
2023-08-29T20:13:25.341Z,12.90
2023-08-29T20:15:52.131Z,12.90
2023-08-29T20:18:19.034Z,12.90
2023-08-29T20:20:45.922Z,12.90
2023-08-29T20:23:13.828Z,12.90
2023-08-29T20:25:40.749Z,12.80
2023-08-29T20:28:08.098Z,12.80
2023-08-29T20:30:36.106Z,12.70
2023-08-29T20:33:03.999Z,12.70
2023-08-29T20:35:30.994Z,12.70
2023-08-29T20:37:58.822Z,12.60
2023-08-29T20:40:28.153Z,12.60
2023-08-29T20:42:55.063Z,12.60
2023-08-29T20:45:24.244Z,12.60
2023-08-29T20:47:51.375Z,12.50
2023-08-29T20:50:18.516Z,12.50
2023-08-29T20:52:45.446Z,12.50
2023-08-29T20:55:12.657Z,12.50
2023-08-29T20:57:39.550Z,12.40
2023-08-29T21:00:07.055Z,12.40
2023-08-29T21:02:34.010Z,12.30
2023-08-29T21:05:00.933Z,12.30
2023-08-29T21:07:27.733Z,12.30
2023-08-29T21:09:54.601Z,12.30
2023-08-29T21:12:22.364Z,12.20
2023-08-29T21:14:49.509Z,12.20
2023-08-29T21:17:17.750Z,12.20
2023-08-29T21:19:44.905Z,12.20
2023-08-29T21:22:11.704Z,12.10
2023-08-29T21:24:38.590Z,12.10
2023-08-29T21:27:05.750Z,12.00
2023-08-29T21:29:32.568Z,12.00
2023-08-29T21:31:59.402Z,12.00
2023-08-29T21:34:26.249Z,11.90
2023-08-29T21:36:53.031Z,11.90
2023-08-29T21:39:19.794Z,11.80
2023-08-29T21:41:46.545Z,11.80
2023-08-29T21:44:13.355Z,11.70
2023-08-29T21:46:40.114Z,11.70
2023-08-29T21:49:06.924Z,11.60
2023-08-29T21:51:34.075Z,11.60
2023-08-29T21:54:00.901Z,11.60
2023-08-29T21:56:27.652Z,11.50
2023-08-29T21:58:54.413Z,11.50
2023-08-29T22:01:21.466Z,11.40
2023-08-29T22:03:50.035Z,11.40
2023-08-29T22:06:16.950Z,11.30
2023-08-29T22:08:45.146Z,11.40
2023-08-29T22:11:11.977Z,11.40
2023-08-29T22:13:38.803Z,11.30
2023-08-29T22:16:06.895Z,11.30
2023-08-29T22:18:33.668Z,11.20
2023-08-29T22:21:00.573Z,11.20
2023-08-29T22:23:27.369Z,11.20
2023-08-29T22:25:54.104Z,11.20
2023-08-29T22:28:20.866Z,11.20
2023-08-29T22:30:48.610Z,11.10
2023-08-29T22:33:15.444Z,11.10
2023-08-29T22:35:45.201Z,11.10
2023-08-29T22:38:12.357Z,11.10
2023-08-29T22:40:39.410Z,11.10
2023-08-29T22:43:06.613Z,11.10
2023-08-29T22:45:33.576Z,11.10
2023-08-29T22:48:00.505Z,11.10
2023-08-29T22:50:27.401Z,11.10
2023-08-29T22:52:54.277Z,11.10
2023-08-29T22:55:24.442Z,11.20
2023-08-29T22:57:52.841Z,11.20
2023-08-29T23:00:21.383Z,11.20
2023-08-29T23:02:51.194Z,11.20
2023-08-29T23:05:19.124Z,11.30
2023-08-29T23:07:45.947Z,11.30
2023-08-29T23:10:14.266Z,11.30
2023-08-29T23:12:41.177Z,11.40
2023-08-29T23:15:08.726Z,11.50
2023-08-29T23:17:35.574Z,11.60
2023-08-29T23:20:05.709Z,11.70
2023-08-29T23:22:32.595Z,11.70
2023-08-29T23:24:59.370Z,11.70
2023-08-29T23:27:27.432Z,11.70
2023-08-29T23:29:54.195Z,11.70
2023-08-29T23:32:20.962Z,11.70
2023-08-29T23:34:49.036Z,11.70
2023-08-29T23:37:16.008Z,11.80
2023-08-29T23:39:42.758Z,11.70
2023-08-29T23:42:11.652Z,11.80
2023-08-29T23:44:38.456Z,11.70
2023-08-29T23:47:05.421Z,11.70
2023-08-29T23:49:32.168Z,11.70
2023-08-29T23:51:58.917Z,11.70
2023-08-29T23:54:25.715Z,11.70
2023-08-29T23:56:52.629Z,11.70
2023-08-29T23:59:19.402Z,11.80
